Time;durP1;ratioP1;P1;durP2;ratioP2;P2;SDS_P1;SDS_P2;PMS_P1;PMS_P2;Temp;Humidity;BMP_temperature;BMP_pressure;BME280_temperature;BME280_humidity;BME280_pressure;Samples;Min_cycle;Max_cycle;Signal;HPM_P1;HPM_P2
2022/01/28 00:04:45;;;;;;;160.65;94.70;;;3.00;99.90;;;;;;5012702;28;20083;-54
2022/01/28 00:07:11;;;;;;;148.98;88.05;;;2.90;99.90;;;;;;5012103;28;20033;-52
2022/01/28 00:09:36;;;;;;;133.23;84.28;;;2.90;99.90;;;;;;4963480;28;20444;-47
2022/01/28 00:12:03;;;;;;;133.65;83.47;;;3.00;99.90;;;;;;4963854;28;20034;-52
2022/01/28 00:14:41;;;;;;;146.40;90.38;;;3.00;99.90;;;;;;4963309;28;20057;-50
2022/01/28 00:17:42;;;;;;;139.63;88.45;;;3.10;99.90;;;;;;5012106;28;20478;-51
2022/01/28 00:39:13;;;;;;;95.45;56.83;;;3.00;99.90;;;;;;5011613;28;20547;-48
2022/01/28 00:41:39;;;;;;;90.32;55.92;;;3.00;99.90;;;;;;5012070;28;20116;-49
2022/01/28 00:44:05;;;;;;;89.43;52.63;;;2.90;99.90;;;;;;4994814;28;20168;-52
2022/01/28 00:46:31;;;;;;;92.45;56.85;;;2.80;99.90;;;;;;5012024;28;20489;-51
2022/01/28 00:48:57;;;;;;;93.75;54.92;;;2.70;99.90;;;;;;5011646;28;20042;-51
2022/01/28 00:51:23;;;;;;;92.82;51.90;;;2.60;99.90;;;;;;5011538;28;20026;-46
2022/01/28 00:53:49;;;;;;;85.10;52.38;;;2.50;99.90;;;;;;5011677;28;20144;-52
2022/01/28 00:56:15;;;;;;;83.03;50.17;;;2.50;99.90;;;;;;5011486;28;20034;-50
2022/01/28 00:58:40;;;;;;;80.97;50.00;;;2.50;99.90;;;;;;4978751;28;20130;-51
2022/01/28 01:01:06;;;;;;;89.63;51.95;;;2.40;99.90;;;;;;5011602;28;20030;-51
2022/01/28 01:03:32;;;;;;;85.07;48.58;;;2.40;99.90;;;;;;5011488;28;20125;-49
2022/01/28 01:05:58;;;;;;;89.20;53.08;;;2.40;99.90;;;;;;4978516;28;20126;-46
2022/01/28 01:08:24;;;;;;;81.88;50.13;;;2.40;99.90;;;;;;4994484;28;20088;-51
2022/01/28 01:10:52;;;;;;;86.28;49.25;;;2.50;99.90;;;;;;4991560;28;20045;-50
2022/01/28 01:13:18;;;;;;;91.32;59.70;;;2.50;99.90;;;;;;4991437;28;20101;-52
2022/01/28 01:15:47;;;;;;;82.60;51.20;;;2.50;99.90;;;;;;5002293;28;20034;-49
2022/01/28 01:18:22;;;;;;;83.60;49.97;;;2.50;99.90;;;;;;4979519;28;20034;-49
2022/01/28 01:23:23;;;;;;;75.80;45.45;;;2.40;99.90;;;;;;5011308;28;20642;-48
2022/01/28 01:28:18;;;;;;;79.97;49.35;;;2.40;99.90;;;;;;5011126;28;20072;-49
2022/01/28 01:30:45;;;;;;;80.53;51.00;;;2.40;99.90;;;;;;5011076;28;20049;-51
2022/01/28 01:33:12;;;;;;;78.43;49.15;;;2.50;99.90;;;;;;5011109;28;20103;-51
2022/01/28 01:35:39;;;;;;;69.88;44.22;;;2.60;99.90;;;;;;5012860;28;20531;-51
2022/01/28 01:38:06;;;;;;;76.50;46.10;;;2.60;99.90;;;;;;4964648;28;20237;-51
2022/01/28 01:40:40;;;;;;;78.00;49.72;;;2.70;99.90;;;;;;5022617;28;20032;-53
2022/01/28 01:43:12;;;;;;;71.93;44.60;;;2.80;99.90;;;;;;4980133;28;20085;-49
2022/01/28 01:54:00;;;;;;;66.93;42.58;;;3.30;99.90;;;;;;5016870;28;20668;-48
2022/01/28 01:56:25;;;;;;;70.22;41.08;;;3.40;99.90;;;;;;5017355;28;20025;-51
2022/01/28 01:58:52;;;;;;;70.07;42.42;;;3.40;99.90;;;;;;5000926;28;20045;-54
2022/01/28 02:01:21;;;;;;;63.58;39.30;;;3.20;99.90;;;;;;5017542;28;20048;-49
2022/01/28 02:03:47;;;;;;;57.80;36.72;;;3.30;99.90;;;;;;5017705;28;20132;-51
2022/01/28 02:06:18;;;;;;;63.15;39.10;;;3.40;99.90;;;;;;5017044;28;20037;-52
2022/01/28 02:08:44;;;;;;;58.50;38.00;;;3.50;99.90;;;;;;4989349;28;20031;-49
2022/01/28 02:11:10;;;;;;;244.88;85.72;;;;;;;;;;4997756;28;20030;-51
2022/01/28 02:13:38;;;;;;;116.20;53.72;;;;;;;;;;4997428;28;20478;-54
2022/01/28 02:16:04;;;;;;;68.57;39.40;;;;;;;;;;4997772;28;20030;-53
2022/01/28 02:18:31;;;;;;;66.60;39.28;;;;;;;;;;4997740;28;20119;-51
2022/01/28 02:21:04;;;;;;;60.10;39.28;;;;;;;;;;5034788;28;20041;-50
2022/01/28 02:23:31;;;;;;;59.92;37.75;;;;;;;;;;5059302;28;20060;-49
2022/01/28 02:25:59;;;;;;;57.25;37.80;;;;;;;;;;5059589;28;20067;-51
2022/01/28 02:28:27;;;;;;;62.15;36.88;;;;;;;;;;5059327;28;20033;-50
2022/01/28 02:30:53;;;;;;;58.60;37.17;;;;;;;;;;5059172;28;20033;-47
2022/01/28 02:33:22;;;;;;;62.97;36.88;;;;;;;;;;5059066;28;20028;-49
2022/01/28 02:35:49;;;;;;;73.72;42.15;;;3.50;99.90;;;;;;5059010;28;20441;-50
2022/01/28 02:38:17;;;;;;;62.65;40.88;;;3.20;99.90;;;;;;5059186;28;20163;-51
2022/01/28 02:40:51;;;;;;;65.40;41.05;;;3.20;99.90;;;;;;5059248;28;20048;-48
2022/01/28 02:45:48;;;;;;;66.30;40.75;;;3.30;99.90;;;;;;5058800;28;20044;-52
2022/01/28 02:48:18;;;;;;;64.95;41.67;;;;;;;;;;5058748;28;20112;-49
2022/01/28 02:51:00;;;;;;;68.07;41.42;;;;;;;;;;5056816;28;20115;-52
2022/01/28 02:53:39;;;;;;;63.00;41.10;;;;;;;;;;5055956;28;20056;-48
2022/01/28 02:56:13;;;;;;;64.93;41.33;;;;;;;;;;5055566;28;20472;-47
2022/01/28 02:58:39;;;;;;;65.78;39.85;;;;;;;;;;5055879;28;20037;-51
2022/01/28 03:01:05;;;;;;;63.63;40.70;;;;;;;;;;5054892;28;20036;-53
2022/01/28 03:03:32;;;;;;;62.50;42.40;;;;;;;;;;5018972;28;20041;-48
2022/01/28 03:05:58;;;;;;;64.85;41.75;;;;;;;;;;5053974;28;20021;-48
2022/01/28 03:08:28;;;;;;;62.97;41.38;;;;;;;;;;5054520;28;20035;-54
2022/01/28 03:16:12;;;;;;;67.10;42.30;;;;;;;;;;5054500;28;20495;-46
2022/01/28 03:21:24;;;;;;;63.10;41.72;;;;;;;;;;5054658;28;20472;-49
2022/01/28 03:23:51;;;;;;;65.68;39.80;;;;;;;;;;5054292;28;20029;-51
2022/01/28 03:26:18;;;;;;;61.70;41.10;;;;;;;;;;5054200;28;20041;-54
2022/01/28 03:28:44;;;;;;;62.17;39.63;;;3.70;99.90;;;;;;5054048;28;20041;-52
2022/01/28 03:31:09;;;;;;;57.13;39.20;;;3.70;99.90;;;;;;5035487;28;20037;-52
2022/01/28 03:33:35;;;;;;;58.97;38.63;;;3.80;99.90;;;;;;5018955;28;20057;-51
2022/01/28 03:36:08;;;;;;;57.20;38.25;;;3.80;99.90;;;;;;5018603;28;20063;-53
2022/01/28 03:38:35;;;;;;;60.42;37.90;;;3.80;99.90;;;;;;5054261;28;20037;-47
2022/01/28 03:41:00;;;;;;;56.00;36.85;;;3.90;99.90;;;;;;5053676;28;20063;-48
2022/01/28 03:43:26;;;;;;;61.50;38.15;;;3.90;99.90;;;;;;5054127;28;20068;-52
2022/01/28 03:45:52;;;;;;;59.85;38.50;;;3.90;99.90;;;;;;5053986;28;20044;-48
2022/01/28 03:48:18;;;;;;;53.85;34.60;;;3.90;99.90;;;;;;5018531;28;20404;-48
2022/01/28 03:50:44;;;;;;;49.67;33.22;;;3.90;99.90;;;;;;5018095;28;20041;-48
2022/01/28 03:53:10;;;;;;;51.20;32.20;;;3.90;99.90;;;;;;5054469;28;20380;-51
2022/01/28 03:55:36;;;;;;;48.13;32.33;;;3.90;99.90;;;;;;5054628;28;20037;-46
2022/01/28 03:58:03;;;;;;;50.25;34.05;;;4.00;99.90;;;;;;5054005;28;20119;-51
2022/01/28 04:00:31;;;;;;;69.00;43.50;;;4.00;99.90;;;;;;5018852;28;20044;-51
2022/01/28 04:03:13;;;;;;;56.38;35.90;;;3.60;99.90;;;;;;5002438;28;20040;-50
2022/01/28 04:14:17;;;;;;;53.00;33.58;;;;;;;;;;4973283;28;20455;-52
2022/01/28 04:19:26;;;;;;;71.32;43.30;;;4.30;99.90;;;;;;4972736;28;20128;-50
2022/01/28 04:21:52;;;;;;;65.10;39.47;;;4.50;99.90;;;;;;4972155;28;20480;-52
2022/01/28 04:24:18;;;;;;;48.38;31.88;;;4.60;99.90;;;;;;4940123;28;20369;-50
2022/01/28 04:26:44;;;;;;;49.53;32.90;;;4.70;99.90;;;;;;4972031;28;20114;-53
2022/01/28 04:29:11;;;;;;;57.53;37.70;;;4.80;99.90;;;;;;4940885;28;20051;-53
2022/01/28 04:31:42;;;;;;;48.17;31.50;;;;;;;;;;4972169;28;20059;-47
2022/01/28 04:34:09;;;;;;;48.28;32.75;;;;;;;;;;4971957;28;20046;-55
2022/01/28 04:36:41;;;;;;;104.88;67.85;;;;;;;;;;4971895;28;20487;-52
2022/01/28 04:39:17;;;;;;;53.45;36.30;;;;;;;;;;4971803;28;20490;-55
2022/01/28 04:41:56;;;;;;;56.47;34.78;;;5.10;99.90;;;;;;4971519;28;20042;-48
2022/01/28 04:44:31;;;;;;;52.97;33.80;;;5.10;99.90;;;;;;4993016;28;20041;-51
2022/01/28 04:47:05;;;;;;;89.32;51.63;;;5.10;99.90;;;;;;5052849;28;20041;-49
2022/01/28 04:49:53;;;;;;;203.18;89.22;;;5.10;99.90;;;;;;5052581;28;20475;-53
2022/01/28 05:06:24;;;;;;;55.90;35.83;;;5.00;99.90;;;;;;5008264;28;20614;-47
2022/01/28 05:28:59;;;;;;;53.70;36.03;;;3.90;99.90;;;;;;5010129;28;20764;-49
2022/01/28 05:31:25;;;;;;;56.65;37.42;;;3.70;99.90;;;;;;5009523;28;20092;-47
2022/01/28 05:33:51;;;;;;;55.13;37.80;;;3.60;99.90;;;;;;5006286;28;20077;-46
2022/01/28 05:36:17;;;;;;;58.22;37.85;;;3.70;99.90;;;;;;4990372;28;20477;-50
2022/01/28 05:38:43;;;;;;;59.53;37.15;;;3.70;99.90;;;;;;4990388;28;20129;-55
2022/01/28 05:41:10;;;;;;;67.07;42.15;;;3.60;99.90;;;;;;4992719;28;20047;-54
2022/01/28 05:43:35;;;;;;;62.58;40.70;;;3.80;99.90;;;;;;5059673;28;20058;-51
2022/01/28 05:46:01;;;;;;;62.88;40.97;;;4.10;99.90;;;;;;5058007;28;20075;-49
2022/01/28 05:48:27;;;;;;;60.88;39.55;;;4.10;99.90;;;;;;5030902;28;20055;-52
2022/01/28 05:50:53;;;;;;;66.03;41.63;;;4.10;99.90;;;;;;5002877;28;20072;-48
2022/01/28 05:53:19;;;;;;;77.28;45.05;;;4.00;99.90;;;;;;5011983;28;20446;-52
2022/01/28 05:55:44;;;;;;;75.07;44.03;;;4.20;99.90;;;;;;5061641;28;20025;-48
2022/01/28 05:58:10;;;;;;;103.78;68.63;;;4.30;99.90;;;;;;5059723;28;20086;-54
2022/01/28 06:00:36;;;;;;;90.93;62.08;;;4.30;99.90;;;;;;5065882;28;20093;-50
2022/01/28 06:03:02;;;;;;;84.03;50.65;;;4.50;99.90;;;;;;5064212;28;20104;-50
2022/01/28 06:05:30;;;;;;;82.57;52.58;;;4.60;99.90;;;;;;5064494;28;20029;-49
2022/01/28 06:08:00;;;;;;;108.28;67.95;;;4.60;99.90;;;;;;5070181;28;20040;-52
2022/01/28 06:10:27;;;;;;;102.45;66.00;;;4.60;99.90;;;;;;5070215;28;20044;-50
2022/01/28 06:12:53;;;;;;;85.00;55.55;;;4.70;99.90;;;;;;5065027;28;20024;-49
2022/01/28 06:15:19;;;;;;;90.85;58.13;;;4.90;99.90;;;;;;5068695;28;20046;-49
2022/01/28 06:17:45;;;;;;;74.65;46.03;;;4.90;99.90;;;;;;5070243;28;20056;-52
2022/01/28 06:20:13;;;;;;;72.57;50.10;;;5.00;99.90;;;;;;5070707;28;20413;-54
2022/01/28 06:22:43;;;;;;;68.18;46.22;;;5.00;99.90;;;;;;5067934;28;20037;-53
2022/01/28 06:25:13;;;;;;;74.90;47.45;;;5.00;99.90;;;;;;5070764;28;20032;-47
2022/01/28 06:27:39;;;;;;;69.43;42.75;;;5.00;99.90;;;;;;5074192;28;20047;-55
2022/01/28 06:30:07;;;;;;;55.03;35.60;;;5.10;99.90;;;;;;5074122;28;20499;-50
2022/01/28 06:32:33;;;;;;;55.70;37.13;;;5.20;99.90;;;;;;5038456;28;20285;-48
2022/01/28 06:35:01;;;;;;;56.72;36.58;;;5.20;99.90;;;;;;5073969;28;20101;-52
2022/01/28 06:37:27;;;;;;;67.35;43.45;;;5.20;99.90;;;;;;5038174;28;20098;-47
2022/01/28 06:39:53;;;;;;;65.55;42.28;;;5.10;99.90;;;;;;5073841;28;20064;-44
2022/01/28 06:42:19;;;;;;;64.25;42.80;;;5.20;99.90;;;;;;5073912;28;20044;-55
2022/01/28 06:44:45;;;;;;;77.30;48.47;;;5.20;99.90;;;;;;5073950;28;20024;-49
2022/01/28 06:47:11;;;;;;;77.75;49.25;;;5.20;99.90;;;;;;5073573;28;20499;-52
2022/01/28 06:49:38;;;;;;;88.63;54.97;;;4.90;99.90;;;;;;5073853;28;20037;-49
2022/01/28 06:52:05;;;;;;;60.70;40.25;;;5.10;99.90;;;;;;5064477;28;20021;-55
2022/01/28 06:54:31;;;;;;;61.97;41.00;;;5.20;99.90;;;;;;4986469;28;20467;-54
2022/01/28 06:56:57;;;;;;;65.55;44.65;;;5.20;99.90;;;;;;5021039;28;20047;-45
2022/01/28 06:59:23;;;;;;;66.13;44.95;;;5.20;99.90;;;;;;5070179;28;20369;-55
2022/01/28 07:01:49;;;;;;;104.30;66.35;;;5.30;99.90;;;;;;5055784;28;20048;-56
2022/01/28 07:04:15;;;;;;;94.38;55.92;;;5.50;99.90;;;;;;5074815;28;20044;-56
2022/01/28 07:06:41;;;;;;;98.82;62.53;;;5.40;99.90;;;;;;5055785;28;20048;-50
2022/01/28 07:09:08;;;;;;;86.15;59.10;;;5.50;99.90;;;;;;5074587;28;20032;-52
2022/01/28 07:11:34;;;;;;;59.03;38.58;;;5.60;99.90;;;;;;5074398;28;20064;-53
2022/01/28 07:13:59;;;;;;;52.00;36.30;;;5.60;99.90;;;;;;5065966;28;20130;-50
2022/01/28 07:16:25;;;;;;;53.38;36.40;;;5.60;99.90;;;;;;5074438;28;20043;-50
2022/01/28 07:18:51;;;;;;;50.17;34.13;;;5.60;99.90;;;;;;5074400;28;20029;-51
2022/01/28 07:21:16;;;;;;;50.25;35.67;;;5.70;99.90;;;;;;5074551;28;20037;-50
2022/01/28 07:23:43;;;;;;;48.03;34.22;;;;;;;;;;5074606;28;20373;-50
2022/01/28 07:26:08;;;;;;;68.30;46.53;;;5.90;99.90;;;;;;5030445;28;20504;-50
2022/01/28 07:28:35;;;;;;;60.33;42.08;;;5.90;99.90;;;;;;5054243;28;20112;-52
2022/01/28 07:31:01;;;;;;;47.75;34.13;;;5.80;99.90;;;;;;5018939;28;20040;-51
2022/01/28 07:33:27;;;;;;;58.85;45.65;;;5.90;99.90;;;;;;5053390;28;20615;-52
2022/01/28 07:35:53;;;;;;;49.35;36.03;;;5.90;99.90;;;;;;5036037;28;20067;-50
2022/01/28 07:38:19;;;;;;;47.35;32.85;;;6.00;99.90;;;;;;5072617;28;20072;-50
2022/01/28 07:40:44;;;;;;;47.55;31.92;;;6.10;99.90;;;;;;5054760;28;20142;-52
2022/01/28 07:43:10;;;;;;;176.82;104.53;;;6.10;99.90;;;;;;5054077;28;20039;-52
2022/01/28 07:45:36;;;;;;;95.20;58.20;;;6.20;99.90;;;;;;5054091;28;20588;-50
2022/01/28 07:48:02;;;;;;;52.97;37.65;;;6.10;99.90;;;;;;5015212;28;20057;-52
2022/01/28 07:50:28;;;;;;;55.53;38.83;;;6.20;99.90;;;;;;5034030;28;20041;-45
2022/01/28 07:52:54;;;;;;;53.03;37.13;;;;;;;;;;5033965;28;20064;-53
2022/01/28 07:55:19;;;;;;;63.70;45.10;;;5.70;99.90;;;;;;5033995;28;20258;-50
2022/01/28 07:57:45;;;;;;;73.32;55.55;;;5.70;99.90;;;;;;5033878;28;20065;-51
2022/01/28 08:00:13;;;;;;;60.72;43.40;;;5.60;99.90;;;;;;5033757;28;20041;-51
2022/01/28 08:02:42;;;;;;;68.03;43.33;;;5.40;99.90;;;;;;5033912;28;20034;-51
2022/01/28 08:05:09;;;;;;;437.73;238.40;;;;;;;;;;5033797;28;20528;-48
2022/01/28 08:07:35;;;;;;;478.15;290.15;;;5.10;99.90;;;;;;5031688;28;20045;-53
2022/01/28 08:10:00;;;;;;;59.63;40.03;;;4.50;99.90;;;;;;5014828;28;20053;-52
2022/01/28 08:12:26;;;;;;;54.60;37.08;;;4.60;99.90;;;;;;5033567;28;20038;-52
2022/01/28 08:14:52;;;;;;;80.38;47.80;;;4.60;99.90;;;;;;5033326;28;20051;-55
2022/01/28 08:17:18;;;;;;;51.25;37.03;;;;;;;;;;5014761;28;20128;-52
2022/01/28 08:19:44;;;;;;;54.63;36.63;;;;;;;;;;5043118;28;20359;-45
2022/01/28 08:22:11;;;;;;;54.65;37.28;;;;;;;;;;5033196;28;20119;-53
2022/01/28 08:24:37;;;;;;;53.13;35.22;;;;;;;;;;5031069;28;20045;-56
2022/01/28 08:27:03;;;;;;;72.68;45.75;;;5.60;99.90;;;;;;5035237;28;20090;-50
2022/01/28 08:29:29;;;;;;;59.72;40.30;;;5.70;99.90;;;;;;5033277;28;20037;-53
2022/01/28 08:31:55;;;;;;;95.30;58.65;;;5.70;99.90;;;;;;5049433;28;20037;-53
2022/01/28 08:34:20;;;;;;;46.20;31.58;;;5.70;99.90;;;;;;5002913;28;20666;-47
2022/01/28 08:36:46;;;;;;;87.65;50.08;;;5.80;99.90;;;;;;5033615;28;20036;-48
2022/01/28 08:39:14;;;;;;;43.05;29.77;;;5.80;99.90;;;;;;5014561;28;20052;-49
2022/01/28 08:41:42;;;;;;;66.53;40.55;;;5.80;99.90;;;;;;5052963;28;20033;-50
2022/01/28 08:44:08;;;;;;;66.60;40.65;;;6.10;99.90;;;;;;5017460;28;20493;-52
2022/01/28 08:46:34;;;;;;;58.53;38.05;;;5.90;99.90;;;;;;5042604;28;20029;-46
2022/01/28 08:49:01;;;;;;;72.32;44.08;;;5.90;99.90;;;;;;5063629;28;20053;-46
2022/01/28 08:51:27;;;;;;;46.72;31.92;;;5.70;99.90;;;;;;5067927;28;20037;-52
2022/01/28 08:53:54;;;;;;;50.30;34.15;;;;;;;;;;5055479;28;20166;-51
2022/01/28 08:56:20;;;;;;;55.22;36.08;;;;;;;;;;5053574;28;20033;-52
2022/01/28 08:58:46;;;;;;;51.47;33.80;;;;;;;;;;5054105;28;20067;-50
2022/01/28 09:01:12;;;;;;;48.47;32.75;;;;;;;;;;5051959;28;20436;-48
2022/01/28 09:03:39;;;;;;;48.97;32.00;;;;;;;;;;5019416;28;20076;-52
2022/01/28 09:06:05;;;;;;;44.67;28.30;;;;;;;;;;5019445;28;20124;-49
2022/01/28 09:08:31;;;;;;;57.40;34.75;;;;;;;;;;5053719;28;20342;-47
2022/01/28 09:11:00;;;;;;;53.15;32.85;;;;;;;;;;5052917;28;20408;-49
2022/01/28 09:13:30;;;;;;;47.58;31.00;;;;;;;;;;5052321;28;20071;-50
2022/01/28 09:15:57;;;;;;;51.80;33.30;;;;;;;;;;5054602;28;20041;-51
2022/01/28 09:18:24;;;;;;;52.72;33.88;;;;;;;;;;5049954;28;20045;-51
2022/01/28 09:20:51;;;;;;;49.90;32.10;;;;;;;;;;5051426;28;20107;-53
2022/01/28 09:23:17;;;;;;;43.33;29.30;;;6.30;99.90;;;;;;5052080;28;20043;-48
2022/01/28 09:25:44;;;;;;;50.53;33.03;;;6.30;99.90;;;;;;5017084;28;20049;-52
2022/01/28 09:28:10;;;;;;;41.97;27.40;;;6.40;99.90;;;;;;5061832;28;20039;-51
2022/01/28 09:30:36;;;;;;;37.92;26.00;;;6.40;99.90;;;;;;5071527;28;20036;-51
2022/01/28 09:33:03;;;;;;;71.97;45.88;;;6.40;99.90;;;;;;5053308;28;20052;-47
2022/01/28 09:35:29;;;;;;;68.03;40.97;;;6.50;99.90;;;;;;5072122;28;20040;-49
2022/01/28 09:37:55;;;;;;;47.67;32.72;;;;;;;;;;4984907;28;20040;-54
2022/01/28 09:40:21;;;;;;;42.83;28.10;;;;;;;;;;5072009;28;20419;-53
2022/01/28 09:42:48;;;;;;;53.72;33.20;;;;;;;;;;5072042;28;20032;-49
2022/01/28 09:45:21;;;;;;;46.50;30.35;;;;;;;;;;5071932;28;20036;-53
2022/01/28 09:47:47;;;;;;;37.25;23.65;;;;;;;;;;5069773;28;20098;-52
2022/01/28 09:50:13;;;;;;;29.40;21.77;;;;;;;;;;5070937;28;20032;-53
2022/01/28 09:52:39;;;;;;;33.00;23.10;;;;;;;;;;5064508;28;20111;-53
2022/01/28 09:55:06;;;;;;;58.97;32.92;;;;;;;;;;5062334;28;20071;-54
2022/01/28 09:57:32;;;;;;;52.75;27.75;;;;;;;;;;5063496;28;20112;-53
2022/01/28 09:59:58;;;;;;;33.83;21.67;;;;;;;;;;5065764;28;20029;-50
2022/01/28 10:02:51;;;;;;;27.25;20.42;;;7.90;99.90;;;;;;5065609;28;20473;-52
2022/01/28 10:05:22;;;;;;;34.70;23.08;;;7.80;99.90;;;;;;5065722;28;20471;-49
2022/01/28 10:08:00;;;;;;;38.30;25.10;;;;;;;;;;5033567;28;20033;-51
2022/01/28 10:10:26;;;;;;;45.53;28.42;;;;;;;;;;5056247;28;20120;-48
2022/01/28 10:13:10;;;;;;;85.80;35.33;;;;;;;;;;5020474;28;20041;-45
2022/01/28 10:15:36;;;;;;;41.63;26.13;;;;;;;;;;5055473;28;20503;-53
2022/01/28 10:18:02;;;;;;;45.08;30.88;;;;;;;;;;5055973;28;20045;-49
2022/01/28 10:20:29;;;;;;;63.28;32.40;;;;;;;;;;5020570;28;20041;-49
2022/01/28 10:22:57;;;;;;;42.45;26.20;;;;;;;;;;5066080;28;20025;-51
2022/01/28 10:25:23;;;;;;;35.15;22.95;;;;;;;;;;5067083;28;20061;-47
2022/01/28 10:28:16;;;;;;;34.30;22.45;;;;;;;;;;5067693;28;20024;-51
2022/01/28 10:30:43;;;;;;;60.28;35.10;;;;;;;;;;5062788;28;20388;-49
2022/01/28 10:33:26;;;;;;;89.80;43.55;;;8.30;99.90;;;;;;4971655;28;20478;-54
2022/01/28 10:35:56;;;;;;;48.30;32.10;;;8.40;99.90;;;;;;5005050;28;20041;-45
2022/01/28 10:38:42;;;;;;;69.72;36.60;;;8.40;99.90;;;;;;4986163;28;20038;-49
2022/01/28 10:41:12;;;;;;;38.85;23.35;;;8.60;99.90;;;;;;5003615;28;20037;-51
2022/01/28 10:43:47;;;;;;;31.63;20.13;;;8.60;99.90;;;;;;4993315;28;20030;-46
2022/01/28 10:46:27;;;;;;;31.13;22.55;;;8.60;99.90;;;;;;4972566;28;20088;-49
2022/01/28 10:49:01;;;;;;;29.58;19.95;;;8.70;99.90;;;;;;5001449;28;20038;-50
2022/01/28 10:51:45;;;;;;;36.92;23.92;;;8.70;99.90;;;;;;5004070;28;20088;-51
2022/01/28 10:54:18;;;;;;;23.52;16.45;;;;;;;;;;4998751;28;20046;-52
2022/01/28 10:56:55;;;;;;;29.88;17.90;;;;;;;;;;5004303;28;20355;-48
2022/01/28 10:59:27;;;;;;;24.25;16.30;;;;;;;;;;4996470;28;20034;-51
2022/01/28 11:01:53;;;;;;;;;;;;;;;;;;4981142;28;20030;-46
2022/01/28 11:04:21;;;;;;;15.38;12.15;;;8.80;99.90;;;;;;5025809;28;20461;-44
2022/01/28 11:06:48;;;;;;;22.90;13.60;;;8.90;99.90;;;;;;5065997;28;20032;-47
2022/01/28 11:09:17;;;;;;;22.02;15.20;;;8.90;99.90;;;;;;5061784;28;20103;-47
2022/01/28 11:11:44;;;;;;;18.67;13.32;;;8.90;99.90;;;;;;5064069;28;20021;-49
2022/01/28 11:14:10;;;;;;;23.23;13.48;;;8.90;99.90;;;;;;5064667;28;20032;-52
2022/01/28 11:16:37;;;;;;;22.40;14.27;;;8.90;99.90;;;;;;5060399;28;20031;-50
2022/01/28 11:19:04;;;;;;;18.35;13.38;;;8.90;99.90;;;;;;5020124;28;20090;-54
2022/01/28 11:21:51;;;;;;;19.10;12.85;;;9.00;99.90;;;;;;5003830;28;20044;-54
2022/01/28 11:24:38;;;;;;;18.35;12.57;;;9.00;99.90;;;;;;5055766;28;20440;-49
2022/01/28 11:27:12;;;;;;;21.00;13.65;;;9.00;99.90;;;;;;5055589;28;20391;-50
2022/01/28 11:29:38;;;;;;;19.77;14.25;;;9.10;99.90;;;;;;5072776;28;20041;-50
2022/01/28 11:32:14;;;;;;;22.60;15.23;;;9.20;99.90;;;;;;5075664;28;20029;-50
2022/01/28 11:34:56;;;;;;;13.80;10.82;;;9.30;99.90;;;;;;5040502;28;20142;-49
2022/01/28 11:37:32;;;;;;;33.55;13.43;;;9.40;99.90;;;;;;5075769;28;20033;-49
2022/01/28 11:40:13;;;;;;;23.10;13.50;;;9.30;99.90;;;;;;5075468;28;20032;-49
2022/01/28 11:42:39;;;;;;;18.50;11.82;;;9.70;99.90;;;;;;5075262;28;20594;-49
2022/01/28 11:45:07;;;;;;;14.60;10.15;;;9.90;99.90;;;;;;5067290;28;20052;-51
2022/01/28 11:47:35;;;;;;;28.73;13.48;;;;;;;;;;5055153;28;20071;-49
2022/01/28 11:50:09;;;;;;;16.38;10.10;;;10.30;99.90;;;;;;5055261;28;20542;-50
2022/01/28 11:52:44;;;;;;;19.60;11.50;;;10.20;99.90;;;;;;5020023;28;20033;-46
2022/01/28 11:55:23;;;;;;;14.15;11.10;;;10.40;99.90;;;;;;5055027;28;20115;-50
2022/01/28 11:58:07;;;;;;;14.55;10.57;;;10.40;99.90;;;;;;5055142;28;20025;-49
2022/01/28 12:00:41;;;;;;;15.15;10.95;;;10.30;99.90;;;;;;5055189;28;20033;-53
2022/01/28 12:03:28;;;;;;;20.92;11.25;;;10.30;99.90;;;;;;5055027;28;20039;-50
2022/01/28 12:05:58;;;;;;;13.73;8.23;;;10.20;99.90;;;;;;5054851;28;20039;-52
2022/01/28 12:08:31;;;;;;;13.30;9.38;;;9.90;99.90;;;;;;5055089;28;20143;-54
2022/01/28 12:10:57;;;;;;;14.88;9.65;;;10.10;99.90;;;;;;5036360;28;20033;-49
2022/01/28 12:13:32;;;;;;;12.75;9.00;;;10.20;99.90;;;;;;5053514;28;20087;-52
2022/01/28 12:16:11;;;;;;;14.70;9.80;;;10.30;99.90;;;;;;5053376;28;20040;-48
2022/01/28 12:18:45;;;;;;;16.45;9.98;;;10.10;99.90;;;;;;5011223;28;20489;-49
2022/01/28 12:21:23;;;;;;;16.05;11.30;;;10.20;99.90;;;;;;4977930;28;20482;-46
2022/01/28 12:23:49;;;;;;;23.48;12.18;;;10.10;99.90;;;;;;4977793;28;20037;-51
2022/01/28 12:26:17;;;;;;;16.20;11.32;;;10.00;99.90;;;;;;5011047;28;20036;-47
2022/01/28 12:28:45;;;;;;;15.82;9.52;;;10.00;99.90;;;;;;5011058;28;20038;-52
2022/01/28 12:31:16;;;;;;;17.45;10.18;;;9.90;99.90;;;;;;5011118;28;20037;-49
2022/01/28 12:33:45;;;;;;;22.60;12.57;;;9.90;99.90;;;;;;5010307;28;20042;-48
2022/01/28 12:36:22;;;;;;;17.02;10.10;;;10.00;99.90;;;;;;4962098;28;20538;-51
2022/01/28 12:39:32;;;;;;;14.70;9.20;;;10.00;99.90;;;;;;5010908;28;20038;-52
2022/01/28 12:41:57;;;;;;;22.95;13.65;;;9.90;99.30;;;;;;5008508;28;20045;-48
2022/01/28 12:44:23;;;;;;;27.38;11.77;;;9.90;99.90;;;;;;5010874;28;20044;-54
2022/01/28 12:46:58;;;;;;;17.38;11.45;;;9.90;99.90;;;;;;4978341;28;20034;-46
2022/01/28 12:49:25;;;;;;;25.15;15.25;;;;;;;;;;4996436;28;20053;-53
2022/01/28 12:51:53;;;;;;;18.85;11.65;;;;;;;;;;5052306;28;20025;-49
2022/01/28 12:54:29;;;;;;;19.48;12.57;;;;;;;;;;5052655;28;20095;-50
2022/01/28 12:56:55;;;;;;;82.65;40.72;;;;;;;;;;5034667;28;20036;-51
2022/01/28 12:59:21;;;;;;;32.00;18.92;;;;;;;;;;5052672;28;20440;-48
2022/01/28 13:01:54;;;;;;;122.35;59.30;;;;;;;;;;5050434;28;20120;-54
2022/01/28 13:04:23;;;;;;;30.13;19.42;;;;;;;;;;5050413;28;20766;-54
2022/01/28 13:09:17;;;;;;;167.82;75.80;;;;;;;;;;5053076;28;20025;-52
2022/01/28 13:11:51;;;;;;;123.93;58.08;;;9.80;99.90;;;;;;5072284;28;20684;-55
2022/01/28 13:14:21;;;;;;;26.42;16.45;;;9.60;99.90;;;;;;5072951;28;20039;-51
2022/01/28 13:16:49;;;;;;;162.65;79.78;;;9.50;99.90;;;;;;5072375;28;20024;-56
2022/01/28 13:19:15;;;;;;;176.52;79.18;;;9.50;99.90;;;;;;5072332;28;20021;-53
2022/01/28 13:21:42;;;;;;;103.90;50.97;;;;;;;;;;5072398;28;20067;-50
2022/01/28 13:24:10;;;;;;;22.88;10.95;;;9.40;99.90;;;;;;5072421;28;20021;-54
2022/01/28 13:26:51;;;;;;;71.00;31.08;;;9.20;99.70;;;;;;5072253;28;20048;-51
2022/01/28 13:29:17;;;;;;;17.23;11.68;;;8.70;99.90;;;;;;5072427;28;20032;-48
2022/01/28 13:31:43;;;;;;;22.20;11.20;;;8.60;99.90;;;;;;5053273;28;20049;-48
2022/01/28 13:34:10;;;;;;;11.50;8.55;;;8.70;99.90;;;;;;5072066;28;20020;-51
2022/01/28 13:36:57;;;;;;;29.13;15.73;;;8.70;99.90;;;;;;5071785;28;20060;-57
2022/01/28 13:39:28;;;;;;;59.88;29.77;;;8.80;99.90;;;;;;5072199;28;20070;-55
2022/01/28 13:42:17;;;;;;;45.40;21.00;;;8.70;99.90;;;;;;5072241;28;20033;-52
2022/01/28 13:44:48;;;;;;;48.28;23.40;;;8.70;99.90;;;;;;5072256;28;20063;-53
2022/01/28 13:47:16;;;;;;;108.47;45.70;;;8.70;99.90;;;;;;5071783;28;20079;-51
2022/01/28 13:49:42;;;;;;;28.05;13.55;;;8.80;99.90;;;;;;5072052;28;20480;-53
2022/01/28 13:52:41;;;;;;;35.13;20.95;;;8.70;99.90;;;;;;5071980;28;20027;-47
2022/01/28 13:55:03;;;;;;;42.35;23.05;;;8.70;99.90;;;;;;5070271;28;20047;-47
2022/01/28 13:57:29;;;;;;;75.07;38.55;;;8.50;99.90;;;;;;5053107;28;20735;-54
2022/01/28 14:00:03;;;;;;;26.52;16.48;;;8.40;99.90;;;;;;5071841;28;20032;-50
2022/01/28 14:02:40;;;;;;;16.70;8.15;;;8.20;99.90;;;;;;5072085;28;20020;-58
2022/01/28 14:05:06;;;;;;;7.43;4.60;;;7.60;99.90;;;;;;5071786;28;20032;-46
2022/01/28 14:07:32;;;;;;;7.85;4.95;;;7.10;99.90;;;;;;5019808;28;20032;-54
2022/01/28 14:10:00;;;;;;;11.02;6.10;;;6.90;99.90;;;;;;5052920;28;20047;-47
2022/01/28 14:12:47;;;;;;;7.13;4.18;;;6.90;99.90;;;;;;5071824;28;20036;-51
2022/01/28 14:15:27;;;;;;;7.60;3.65;;;6.70;99.90;;;;;;5071873;28;20047;-51
2022/01/28 14:17:55;;;;;;;16.13;8.57;;;6.50;99.90;;;;;;5071738;28;20063;-49
2022/01/28 14:20:21;;;;;;;6.50;3.58;;;6.40;99.90;;;;;;5071653;28;20618;-54
2022/01/28 14:22:47;;;;;;;10.10;5.85;;;6.50;99.90;;;;;;5071891;28;20052;-57
2022/01/28 14:25:13;;;;;;;5.35;3.50;;;6.70;99.90;;;;;;5071666;28;20400;-57
2022/01/28 14:30:21;;;;;;;6.28;3.17;;;6.70;99.90;;;;;;5071702;28;20031;-44
2022/01/28 14:32:47;;;;;;;7.93;2.95;;;6.70;99.90;;;;;;5071660;28;20037;-50
2022/01/28 14:35:13;;;;;;;5.88;4.38;;;6.80;99.90;;;;;;5071516;28;20039;-51
2022/01/28 14:37:40;;;;;;;13.35;2.70;;;6.80;99.90;;;;;;5071737;28;20033;-54
2022/01/28 14:40:08;;;;;;;5.07;2.45;;;6.30;99.90;;;;;;5071458;28;20028;-49
2022/01/28 14:42:35;;;;;;;5.32;2.80;;;6.20;99.90;;;;;;5029133;28;20049;-50
2022/01/28 14:45:01;;;;;;;43.05;18.20;;;5.90;99.90;;;;;;5029340;28;20498;-53
2022/01/28 14:47:27;;;;;;;32.67;13.90;;;5.50;99.90;;;;;;4998086;28;20068;-48